sensor_id;sensor_type;location;lat;lon;timestamp;pressure;altitude;pressure_sealevel;temperature;humidity
77011;BME280;65945;53.148;17.956;2024-02-26T00:01:47;100196.45;;;1.07;93.23
77011;BME280;65945;53.148;17.956;2024-02-26T00:04:14;100193.35;;;1.05;93.53
77011;BME280;65945;53.148;17.956;2024-02-26T00:06:41;100192.76;;;1.02;93.66
77011;BME280;65945;53.148;17.956;2024-02-26T00:09:08;100189.21;;;1.01;93.46
77011;BME280;65945;53.148;17.956;2024-02-26T00:11:36;100192.73;;;0.99;93.64
77011;BME280;65945;53.148;17.956;2024-02-26T00:14:03;100189.45;;;0.97;93.47
77011;BME280;65945;53.148;17.956;2024-02-26T00:16:31;100189.49;;;0.93;93.55
77011;BME280;65945;53.148;17.956;2024-02-26T00:18:57;100190.91;;;0.90;93.30
77011;BME280;65945;53.148;17.956;2024-02-26T00:21:24;100191.23;;;0.86;93.29
77011;BME280;65945;53.148;17.956;2024-02-26T00:23:52;100192.42;;;0.82;93.65
77011;BME280;65945;53.148;17.956;2024-02-26T00:26:19;100197.05;;;0.78;93.39
77011;BME280;65945;53.148;17.956;2024-02-26T00:28:46;100194.66;;;0.74;93.52
77011;BME280;65945;53.148;17.956;2024-02-26T00:31:13;100193.10;;;0.71;93.54
77011;BME280;65945;53.148;17.956;2024-02-26T00:33:40;100188.38;;;0.68;93.70
77011;BME280;65945;53.148;17.956;2024-02-26T00:36:06;100185.31;;;0.66;93.94
77011;BME280;65945;53.148;17.956;2024-02-26T00:38:33;100180.15;;;0.63;93.85
77011;BME280;65945;53.148;17.956;2024-02-26T00:41:00;100181.83;;;0.61;93.79
77011;BME280;65945;53.148;17.956;2024-02-26T00:43:26;100181.45;;;0.59;93.96
77011;BME280;65945;53.148;17.956;2024-02-26T00:45:53;100179.94;;;0.59;93.69
77011;BME280;65945;53.148;17.956;2024-02-26T00:48:20;100183.34;;;0.59;94.14
77011;BME280;65945;53.148;17.956;2024-02-26T00:50:46;100184.19;;;0.61;93.96
77011;BME280;65945;53.148;17.956;2024-02-26T00:53:13;100182.60;;;0.64;94.23
77011;BME280;65945;53.148;17.956;2024-02-26T00:55:40;100183.90;;;0.67;94.34
77011;BME280;65945;53.148;17.956;2024-02-26T00:58:06;100179.27;;;0.72;94.18
77011;BME280;65945;53.148;17.956;2024-02-26T01:00:33;100180.13;;;0.77;94.55
77011;BME280;65945;53.148;17.956;2024-02-26T01:02:59;100177.80;;;0.81;94.53
77011;BME280;65945;53.148;17.956;2024-02-26T01:05:27;100170.60;;;0.86;94.35
77011;BME280;65945;53.148;17.956;2024-02-26T01:07:54;100169.61;;;0.90;94.54
77011;BME280;65945;53.148;17.956;2024-02-26T01:10:20;100172.00;;;0.94;94.48
77011;BME280;65945;53.148;17.956;2024-02-26T01:12:47;100169.25;;;0.96;94.38
77011;BME280;65945;53.148;17.956;2024-02-26T01:15:14;100175.54;;;0.98;94.09
77011;BME280;65945;53.148;17.956;2024-02-26T01:17:41;100176.91;;;0.98;94.15
77011;BME280;65945;53.148;17.956;2024-02-26T01:20:08;100180.80;;;0.98;94.25
77011;BME280;65945;53.148;17.956;2024-02-26T01:22:35;100184.40;;;0.99;94.32
77011;BME280;65945;53.148;17.956;2024-02-26T01:25:02;100186.00;;;1.01;94.31
77011;BME280;65945;53.148;17.956;2024-02-26T01:27:29;100185.98;;;1.02;94.59
77011;BME280;65945;53.148;17.956;2024-02-26T01:29:55;100184.94;;;1.04;94.45
77011;BME280;65945;53.148;17.956;2024-02-26T01:32:22;100186.69;;;1.06;94.54
77011;BME280;65945;53.148;17.956;2024-02-26T01:34:49;100185.68;;;1.08;94.64
77011;BME280;65945;53.148;17.956;2024-02-26T01:37:15;100189.66;;;1.11;94.72
77011;BME280;65945;53.148;17.956;2024-02-26T01:39:42;100187.83;;;1.13;94.53
77011;BME280;65945;53.148;17.956;2024-02-26T01:42:09;100188.09;;;1.16;94.50
77011;BME280;65945;53.148;17.956;2024-02-26T01:44:35;100188.27;;;1.19;94.79
77011;BME280;65945;53.148;17.956;2024-02-26T01:47:02;100192.26;;;1.22;94.61
77011;BME280;65945;53.148;17.956;2024-02-26T01:49:29;100195.09;;;1.26;94.85
77011;BME280;65945;53.148;17.956;2024-02-26T01:51:56;100197.59;;;1.31;94.93
77011;BME280;65945;53.148;17.956;2024-02-26T01:54:24;100201.67;;;1.34;94.77
77011;BME280;65945;53.148;17.956;2024-02-26T01:56:51;100198.73;;;1.37;94.75
77011;BME280;65945;53.148;17.956;2024-02-26T01:59:18;100196.45;;;1.39;94.76
77011;BME280;65945;53.148;17.956;2024-02-26T02:01:48;100193.07;;;1.41;94.81
77011;BME280;65945;53.148;17.956;2024-02-26T02:04:20;100196.13;;;1.42;94.83
77011;BME280;65945;53.148;17.956;2024-02-26T02:06:47;100198.90;;;1.40;94.55
77011;BME280;65945;53.148;17.956;2024-02-26T02:09:15;100200.77;;;1.37;94.36
77011;BME280;65945;53.148;17.956;2024-02-26T02:11:41;100196.08;;;1.32;94.30
77011;BME280;65945;53.148;17.956;2024-02-26T02:14:08;100199.30;;;1.28;94.47
77011;BME280;65945;53.148;17.956;2024-02-26T02:16:35;100192.33;;;1.22;94.35
77011;BME280;65945;53.148;17.956;2024-02-26T02:19:01;100191.03;;;1.16;94.40
77011;BME280;65945;53.148;17.956;2024-02-26T02:21:28;100187.07;;;1.12;94.53
77011;BME280;65945;53.148;17.956;2024-02-26T02:23:55;100189.45;;;1.08;94.62
77011;BME280;65945;53.148;17.956;2024-02-26T02:26:22;100193.55;;;1.05;94.69
77011;BME280;65945;53.148;17.956;2024-02-26T02:28:48;100197.39;;;1.03;94.54
77011;BME280;65945;53.148;17.956;2024-02-26T02:31:15;100191.98;;;1.02;94.72
77011;BME280;65945;53.148;17.956;2024-02-26T02:33:42;100191.67;;;1.02;94.98
77011;BME280;65945;53.148;17.956;2024-02-26T02:36:09;100193.94;;;1.02;94.97
77011;BME280;65945;53.148;17.956;2024-02-26T02:38:37;100199.19;;;1.03;95.03
77011;BME280;65945;53.148;17.956;2024-02-26T02:41:04;100201.52;;;1.04;94.91
77011;BME280;65945;53.148;17.956;2024-02-26T02:43:31;100206.73;;;1.06;95.08
77011;BME280;65945;53.148;17.956;2024-02-26T02:45:58;100208.27;;;1.08;95.24
77011;BME280;65945;53.148;17.956;2024-02-26T02:48:24;100211.59;;;1.08;95.11
77011;BME280;65945;53.148;17.956;2024-02-26T02:50:52;100210.58;;;1.09;95.43
77011;BME280;65945;53.148;17.956;2024-02-26T02:53:18;100208.91;;;1.10;95.47
77011;BME280;65945;53.148;17.956;2024-02-26T02:55:45;100213.08;;;1.13;95.58
77011;BME280;65945;53.148;17.956;2024-02-26T02:58:12;100210.70;;;1.15;95.49
77011;BME280;65945;53.148;17.956;2024-02-26T03:00:38;100212.58;;;1.16;95.76
77011;BME280;65945;53.148;17.956;2024-02-26T03:03:05;100210.29;;;1.17;95.56
77011;BME280;65945;53.148;17.956;2024-02-26T03:05:31;100207.07;;;1.18;95.52
77011;BME280;65945;53.148;17.956;2024-02-26T03:07:58;100208.56;;;1.19;95.57
77011;BME280;65945;53.148;17.956;2024-02-26T03:10:25;100203.30;;;1.19;95.54
77011;BME280;65945;53.148;17.956;2024-02-26T03:12:51;100201.98;;;1.19;95.51
77011;BME280;65945;53.148;17.956;2024-02-26T03:15:18;100197.80;;;1.20;95.75
77011;BME280;65945;53.148;17.956;2024-02-26T03:17:44;100191.35;;;1.21;95.50
77011;BME280;65945;53.148;17.956;2024-02-26T03:20:11;100191.66;;;1.21;95.71
77011;BME280;65945;53.148;17.956;2024-02-26T03:22:39;100187.31;;;1.20;95.60
77011;BME280;65945;53.148;17.956;2024-02-26T03:25:07;100185.98;;;1.16;95.29
77011;BME280;65945;53.148;17.956;2024-02-26T03:27:34;100186.12;;;1.12;95.30
77011;BME280;65945;53.148;17.956;2024-02-26T03:30:00;100185.79;;;1.07;95.03
77011;BME280;65945;53.148;17.956;2024-02-26T03:32:27;100180.55;;;1.02;95.01
77011;BME280;65945;53.148;17.956;2024-02-26T03:34:54;100178.59;;;0.98;95.01
77011;BME280;65945;53.148;17.956;2024-02-26T03:37:22;100176.06;;;0.94;95.39
77011;BME280;65945;53.148;17.956;2024-02-26T03:39:49;100176.87;;;0.91;95.21
77011;BME280;65945;53.148;17.956;2024-02-26T03:42:15;100180.15;;;0.87;94.96
77011;BME280;65945;53.148;17.956;2024-02-26T03:44:42;100183.39;;;0.83;95.05
77011;BME280;65945;53.148;17.956;2024-02-26T03:47:09;100184.09;;;0.81;95.15
77011;BME280;65945;53.148;17.956;2024-02-26T03:49:36;100188.21;;;0.77;95.18
77011;BME280;65945;53.148;17.956;2024-02-26T03:52:03;100189.83;;;0.74;95.18
77011;BME280;65945;53.148;17.956;2024-02-26T03:54:29;100199.08;;;0.71;95.20
77011;BME280;65945;53.148;17.956;2024-02-26T03:56:56;100202.61;;;0.71;95.62
77011;BME280;65945;53.148;17.956;2024-02-26T03:59:23;100207.16;;;0.72;95.62
77011;BME280;65945;53.148;17.956;2024-02-26T04:01:51;100210.17;;;0.72;95.35
77011;BME280;65945;53.148;17.956;2024-02-26T04:04:18;100209.79;;;0.73;95.68
77011;BME280;65945;53.148;17.956;2024-02-26T04:06:47;100207.92;;;0.75;95.76
77011;BME280;65945;53.148;17.956;2024-02-26T04:09:14;100206.16;;;0.77;95.91
77011;BME280;65945;53.148;17.956;2024-02-26T04:11:41;100203.00;;;0.80;95.91
77011;BME280;65945;53.148;17.956;2024-02-26T04:14:09;100199.98;;;0.83;95.67
77011;BME280;65945;53.148;17.956;2024-02-26T04:16:39;100195.00;;;0.82;95.99
77011;BME280;65945;53.148;17.956;2024-02-26T04:19:06;100196.64;;;0.82;95.72
77011;BME280;65945;53.148;17.956;2024-02-26T04:21:34;100196.11;;;0.78;95.86
77011;BME280;65945;53.148;17.956;2024-02-26T04:24:01;100200.48;;;0.72;95.71
77011;BME280;65945;53.148;17.956;2024-02-26T04:26:30;100202.45;;;0.69;95.38
77011;BME280;65945;53.148;17.956;2024-02-26T04:28:57;100206.23;;;0.67;95.70
77011;BME280;65945;53.148;17.956;2024-02-26T04:31:24;100203.46;;;0.66;95.93
77011;BME280;65945;53.148;17.956;2024-02-26T04:33:51;100204.21;;;0.65;95.78
77011;BME280;65945;53.148;17.956;2024-02-26T04:36:17;100200.59;;;0.64;96.01
77011;BME280;65945;53.148;17.956;2024-02-26T04:38:44;100199.63;;;0.63;95.91
77011;BME280;65945;53.148;17.956;2024-02-26T04:41:11;100200.64;;;0.62;96.13
77011;BME280;65945;53.148;17.956;2024-02-26T04:43:38;100194.86;;;0.60;96.70
77011;BME280;65945;53.148;17.956;2024-02-26T04:46:08;100203.93;;;0.56;96.63
77011;BME280;65945;53.148;17.956;2024-02-26T04:48:35;100203.69;;;0.52;96.36
77011;BME280;65945;53.148;17.956;2024-02-26T04:51:03;100206.61;;;0.49;96.84
77011;BME280;65945;53.148;17.956;2024-02-26T04:53:29;100208.38;;;0.47;96.82
77011;BME280;65945;53.148;17.956;2024-02-26T04:55:56;100211.36;;;0.45;97.19
77011;BME280;65945;53.148;17.956;2024-02-26T04:58:23;100211.02;;;0.42;97.31
77011;BME280;65945;53.148;17.956;2024-02-26T05:00:50;100215.72;;;0.41;97.22
77011;BME280;65945;53.148;17.956;2024-02-26T05:03:17;100216.48;;;0.39;97.39
77011;BME280;65945;53.148;17.956;2024-02-26T05:05:43;100219.07;;;0.37;97.33
77011;BME280;65945;53.148;17.956;2024-02-26T05:08:10;100224.04;;;0.35;97.62
77011;BME280;65945;53.148;17.956;2024-02-26T05:10:37;100225.83;;;0.35;97.42
77011;BME280;65945;53.148;17.956;2024-02-26T05:13:07;100226.81;;;0.33;97.47
77011;BME280;65945;53.148;17.956;2024-02-26T05:15:35;100229.29;;;0.30;97.63
77011;BME280;65945;53.148;17.956;2024-02-26T05:18:02;100235.25;;;0.29;97.53
77011;BME280;65945;53.148;17.956;2024-02-26T05:20:29;100237.89;;;0.29;97.30
77011;BME280;65945;53.148;17.956;2024-02-26T05:22:56;100241.42;;;0.32;97.55
77011;BME280;65945;53.148;17.956;2024-02-26T05:25:25;100242.33;;;0.33;97.63
77011;BME280;65945;53.148;17.956;2024-02-26T05:27:52;100244.70;;;0.34;97.62
77011;BME280;65945;53.148;17.956;2024-02-26T05:30:18;100249.42;;;0.34;97.48
77011;BME280;65945;53.148;17.956;2024-02-26T05:32:45;100250.75;;;0.33;97.39
77011;BME280;65945;53.148;17.956;2024-02-26T05:35:12;100253.80;;;0.33;97.32
77011;BME280;65945;53.148;17.956;2024-02-26T05:37:38;100256.95;;;0.31;97.49
77011;BME280;65945;53.148;17.956;2024-02-26T05:40:06;100265.09;;;0.29;97.61
77011;BME280;65945;53.148;17.956;2024-02-26T05:42:32;100265.11;;;0.28;97.64
77011;BME280;65945;53.148;17.956;2024-02-26T05:45:00;100269.95;;;0.27;97.55
77011;BME280;65945;53.148;17.956;2024-02-26T05:47:35;100271.98;;;0.26;97.73
77011;BME280;65945;53.148;17.956;2024-02-26T05:50:02;100270.25;;;0.26;97.84
77011;BME280;65945;53.148;17.956;2024-02-26T05:52:28;100275.29;;;0.26;97.82
77011;BME280;65945;53.148;17.956;2024-02-26T05:54:59;100278.59;;;0.27;97.86
77011;BME280;65945;53.148;17.956;2024-02-26T05:57:25;100277.31;;;0.28;97.57
77011;BME280;65945;53.148;17.956;2024-02-26T05:59:52;100273.27;;;0.29;97.73
77011;BME280;65945;53.148;17.956;2024-02-26T06:02:18;100272.39;;;0.29;97.65
77011;BME280;65945;53.148;17.956;2024-02-26T06:04:45;100275.36;;;0.31;97.67
77011;BME280;65945;53.148;17.956;2024-02-26T06:07:13;100279.04;;;0.31;97.83
77011;BME280;65945;53.148;17.956;2024-02-26T06:09:40;100278.27;;;0.28;97.90
77011;BME280;65945;53.148;17.956;2024-02-26T06:12:06;100277.32;;;0.27;98.07
77011;BME280;65945;53.148;17.956;2024-02-26T06:14:33;100278.98;;;0.26;98.06
77011;BME280;65945;53.148;17.956;2024-02-26T06:17:00;100282.56;;;0.26;97.57
77011;BME280;65945;53.148;17.956;2024-02-26T06:19:26;100286.68;;;0.24;97.63
77011;BME280;65945;53.148;17.956;2024-02-26T06:21:53;100285.34;;;0.23;97.90
77011;BME280;65945;53.148;17.956;2024-02-26T06:24:20;100286.32;;;0.24;97.92
77011;BME280;65945;53.148;17.956;2024-02-26T06:26:48;100288.41;;;0.25;97.75
77011;BME280;65945;53.148;17.956;2024-02-26T06:29:15;100293.77;;;0.26;98.00
77011;BME280;65945;53.148;17.956;2024-02-26T06:31:42;100293.84;;;0.25;97.64
77011;BME280;65945;53.148;17.956;2024-02-26T06:34:08;100295.45;;;0.25;97.70
77011;BME280;65945;53.148;17.956;2024-02-26T06:36:35;100295.78;;;0.27;98.10
77011;BME280;65945;53.148;17.956;2024-02-26T06:39:02;100292.95;;;0.27;98.06
77011;BME280;65945;53.148;17.956;2024-02-26T06:41:29;100292.34;;;0.26;97.87
77011;BME280;65945;53.148;17.956;2024-02-26T06:43:56;100294.10;;;0.28;97.88
77011;BME280;65945;53.148;17.956;2024-02-26T06:46:23;100289.50;;;0.29;97.82
77011;BME280;65945;53.148;17.956;2024-02-26T06:48:53;100292.13;;;0.29;97.63
77011;BME280;65945;53.148;17.956;2024-02-26T06:51:20;100296.70;;;0.32;98.03
77011;BME280;65945;53.148;17.956;2024-02-26T06:53:46;100304.26;;;0.39;97.78
77011;BME280;65945;53.148;17.956;2024-02-26T06:56:13;100303.23;;;0.46;98.09
77011;BME280;65945;53.148;17.956;2024-02-26T06:58:39;100306.92;;;0.51;98.08
77011;BME280;65945;53.148;17.956;2024-02-26T07:01:06;100304.51;;;0.56;98.27
77011;BME280;65945;53.148;17.956;2024-02-26T07:03:34;100312.08;;;0.62;97.97
77011;BME280;65945;53.148;17.956;2024-02-26T07:06:02;100309.58;;;0.69;98.05
77011;BME280;65945;53.148;17.956;2024-02-26T07:08:28;100311.06;;;0.77;98.07
77011;BME280;65945;53.148;17.956;2024-02-26T07:10:55;100315.83;;;0.85;98.46
77011;BME280;65945;53.148;17.956;2024-02-26T07:13:22;100315.20;;;0.96;98.36
77011;BME280;65945;53.148;17.956;2024-02-26T07:15:49;100315.83;;;1.01;97.92
77011;BME280;65945;53.148;17.956;2024-02-26T07:18:15;100317.58;;;1.01;97.79
77011;BME280;65945;53.148;17.956;2024-02-26T07:20:42;100315.39;;;0.99;97.57
77011;BME280;65945;53.148;17.956;2024-02-26T07:23:09;100319.16;;;0.98;97.44
77011;BME280;65945;53.148;17.956;2024-02-26T07:25:35;100320.02;;;1.01;97.68
77011;BME280;65945;53.148;17.956;2024-02-26T07:28:03;100317.91;;;1.07;97.62
77011;BME280;65945;53.148;17.956;2024-02-26T07:30:30;100319.27;;;1.05;97.28
77011;BME280;65945;53.148;17.956;2024-02-26T07:32:56;100326.41;;;1.04;97.21
77011;BME280;65945;53.148;17.956;2024-02-26T07:35:23;100327.05;;;1.04;97.26
77011;BME280;65945;53.148;17.956;2024-02-26T07:37:50;100329.05;;;1.06;97.29
77011;BME280;65945;53.148;17.956;2024-02-26T07:40:17;100327.67;;;1.11;97.30
77011;BME280;65945;53.148;17.956;2024-02-26T07:42:43;100331.70;;;1.13;97.26
77011;BME280;65945;53.148;17.956;2024-02-26T07:45:10;100333.75;;;1.16;97.41
77011;BME280;65945;53.148;17.956;2024-02-26T07:47:37;100335.42;;;1.19;97.52
77011;BME280;65945;53.148;17.956;2024-02-26T07:50:08;100340.94;;;1.23;97.47
77011;BME280;65945;53.148;17.956;2024-02-26T07:52:35;100338.65;;;1.23;97.50
77011;BME280;65945;53.148;17.956;2024-02-26T07:55:02;100343.88;;;1.28;97.47
77011;BME280;65945;53.148;17.956;2024-02-26T07:57:28;100343.52;;;1.35;97.51
77011;BME280;65945;53.148;17.956;2024-02-26T07:59:55;100346.27;;;1.45;97.78
77011;BME280;65945;53.148;17.956;2024-02-26T08:02:22;100351.23;;;1.56;97.85
77011;BME280;65945;53.148;17.956;2024-02-26T08:04:49;100355.52;;;1.69;98.19
77011;BME280;65945;53.148;17.956;2024-02-26T08:07:16;100355.21;;;1.82;98.29
77011;BME280;65945;53.148;17.956;2024-02-26T08:09:43;100358.25;;;1.97;98.51
77011;BME280;65945;53.148;17.956;2024-02-26T08:12:09;100357.75;;;2.09;98.31
77011;BME280;65945;53.148;17.956;2024-02-26T08:14:36;100357.25;;;2.20;98.11
77011;BME280;65945;53.148;17.956;2024-02-26T08:17:03;100358.89;;;2.29;97.92
77011;BME280;65945;53.148;17.956;2024-02-26T08:19:30;100363.48;;;2.37;97.89
77011;BME280;65945;53.148;17.956;2024-02-26T08:21:56;100362.95;;;2.44;97.65
77011;BME280;65945;53.148;17.956;2024-02-26T08:24:23;100363.80;;;2.49;97.54
77011;BME280;65945;53.148;17.956;2024-02-26T08:26:50;100367.10;;;2.58;97.49
77011;BME280;65945;53.148;17.956;2024-02-26T08:29:16;100364.50;;;2.65;97.51
77011;BME280;65945;53.148;17.956;2024-02-26T08:31:43;100360.06;;;2.73;97.48
77011;BME280;65945;53.148;17.956;2024-02-26T08:34:11;100355.37;;;2.80;97.31
77011;BME280;65945;53.148;17.956;2024-02-26T08:36:38;100353.81;;;2.89;97.29
77011;BME280;65945;53.148;17.956;2024-02-26T08:39:04;100353.60;;;2.94;97.26
77011;BME280;65945;53.148;17.956;2024-02-26T08:41:31;100354.77;;;3.00;97.07
77011;BME280;65945;53.148;17.956;2024-02-26T08:43:58;100353.61;;;3.05;97.30
77011;BME280;65945;53.148;17.956;2024-02-26T08:46:25;100356.11;;;3.10;97.43
77011;BME280;65945;53.148;17.956;2024-02-26T08:48:51;100361.50;;;3.16;97.22
77011;BME280;65945;53.148;17.956;2024-02-26T08:51:18;100363.60;;;3.22;97.44
77011;BME280;65945;53.148;17.956;2024-02-26T08:53:44;100363.98;;;3.29;97.42
77011;BME280;65945;53.148;17.956;2024-02-26T08:56:11;100369.44;;;3.36;97.68
77011;BME280;65945;53.148;17.956;2024-02-26T08:58:43;100366.63;;;3.44;97.63
77011;BME280;65945;53.148;17.956;2024-02-26T09:01:10;100367.47;;;3.52;97.55
77011;BME280;65945;53.148;17.956;2024-02-26T09:03:37;100373.67;;;3.66;97.94
77011;BME280;65945;53.148;17.956;2024-02-26T09:06:03;100371.84;;;3.84;98.29
77011;BME280;65945;53.148;17.956;2024-02-26T09:08:30;100371.06;;;4.02;98.31
77011;BME280;65945;53.148;17.956;2024-02-26T09:10:57;100366.93;;;4.21;98.28
77011;BME280;65945;53.148;17.956;2024-02-26T09:13:24;100369.54;;;4.38;98.19
77011;BME280;65945;53.148;17.956;2024-02-26T09:15:50;100372.88;;;4.55;98.16
77011;BME280;65945;53.148;17.956;2024-02-26T09:18:17;100376.48;;;4.70;98.06
77011;BME280;65945;53.148;17.956;2024-02-26T09:20:44;100382.05;;;4.85;97.73
77011;BME280;65945;53.148;17.956;2024-02-26T09:23:10;100382.79;;;4.99;97.72
77011;BME280;65945;53.148;17.956;2024-02-26T09:25:37;100379.69;;;5.13;97.41
77011;BME280;65945;53.148;17.956;2024-02-26T09:28:04;100380.85;;;5.27;97.03
77011;BME280;65945;53.148;17.956;2024-02-26T09:30:31;100378.88;;;5.39;96.77
77011;BME280;65945;53.148;17.956;2024-02-26T09:32:57;100384.16;;;5.52;96.47
77011;BME280;65945;53.148;17.956;2024-02-26T09:35:24;100381.73;;;5.69;96.55
77011;BME280;65945;53.148;17.956;2024-02-26T09:37:51;100381.80;;;5.86;96.22
77011;BME280;65945;53.148;17.956;2024-02-26T09:40:17;100381.05;;;6.01;94.89
77011;BME280;65945;53.148;17.956;2024-02-26T09:42:45;100384.65;;;6.18;94.74
77011;BME280;65945;53.148;17.956;2024-02-26T09:45:18;100382.02;;;6.34;94.68
77011;BME280;65945;53.148;17.956;2024-02-26T09:47:47;100384.02;;;6.51;94.33
77011;BME280;65945;53.148;17.956;2024-02-26T09:50:16;100384.78;;;6.68;93.77
77011;BME280;65945;53.148;17.956;2024-02-26T09:52:44;100381.05;;;6.84;92.86
77011;BME280;65945;53.148;17.956;2024-02-26T09:55:11;100384.69;;;6.98;92.00
77011;BME280;65945;53.148;17.956;2024-02-26T09:57:37;100390.11;;;7.13;92.00
77011;BME280;65945;53.148;17.956;2024-02-26T10:00:07;100391.68;;;7.29;91.42
77011;BME280;65945;53.148;17.956;2024-02-26T10:02:37;100391.19;;;7.46;91.22
77011;BME280;65945;53.148;17.956;2024-02-26T10:05:07;100385.21;;;7.62;91.07
77011;BME280;65945;53.148;17.956;2024-02-26T10:07:37;100385.58;;;7.80;90.45
77011;BME280;65945;53.148;17.956;2024-02-26T10:10:04;100382.03;;;7.95;88.78
77011;BME280;65945;53.148;17.956;2024-02-26T10:12:31;100384.89;;;8.04;86.03
77011;BME280;65945;53.148;17.956;2024-02-26T10:14:59;100382.08;;;8.13;84.99
77011;BME280;65945;53.148;17.956;2024-02-26T10:17:26;100383.48;;;8.22;85.14
77011;BME280;65945;53.148;17.956;2024-02-26T10:19:53;100382.27;;;8.36;86.35
77011;BME280;65945;53.148;17.956;2024-02-26T10:22:23;100378.30;;;8.51;86.71
77011;BME280;65945;53.148;17.956;2024-02-26T10:24:49;100375.01;;;8.68;86.10
77011;BME280;65945;53.148;17.956;2024-02-26T10:27:16;100374.64;;;8.84;86.23
77011;BME280;65945;53.148;17.956;2024-02-26T10:29:43;100371.16;;;9.01;85.67
77011;BME280;65945;53.148;17.956;2024-02-26T10:32:09;100368.08;;;9.16;83.64
77011;BME280;65945;53.148;17.956;2024-02-26T10:34:39;100372.83;;;9.31;84.38
77011;BME280;65945;53.148;17.956;2024-02-26T10:37:09;100370.54;;;9.44;83.14
77011;BME280;65945;53.148;17.956;2024-02-26T10:39:36;100365.86;;;9.58;83.51
77011;BME280;65945;53.148;17.956;2024-02-26T10:42:04;100370.52;;;9.73;82.72
77011;BME280;65945;53.148;17.956;2024-02-26T10:44:36;100366.56;;;9.87;82.85
77011;BME280;65945;53.148;17.956;2024-02-26T10:47:03;100370.85;;;10.00;81.95
77011;BME280;65945;53.148;17.956;2024-02-26T10:49:29;100373.07;;;10.12;80.78
77011;BME280;65945;53.148;17.956;2024-02-26T10:51:56;100373.66;;;10.22;80.40
77011;BME280;65945;53.148;17.956;2024-02-26T10:54:26;100375.00;;;10.33;80.13
77011;BME280;65945;53.148;17.956;2024-02-26T10:56:56;100377.51;;;10.44;80.55
77011;BME280;65945;53.148;17.956;2024-02-26T10:59:24;100378.94;;;10.52;80.38
77011;BME280;65945;53.148;17.956;2024-02-26T11:01:51;100378.87;;;10.61;80.40
77011;BME280;65945;53.148;17.956;2024-02-26T11:04:19;100377.65;;;10.71;78.81
77011;BME280;65945;53.148;17.956;2024-02-26T11:06:47;100374.02;;;10.77;77.62
77011;BME280;65945;53.148;17.956;2024-02-26T11:09:14;100368.70;;;10.80;76.23
77011;BME280;65945;53.148;17.956;2024-02-26T11:11:42;100362.02;;;10.82;73.37
77011;BME280;65945;53.148;17.956;2024-02-26T11:14:09;100358.80;;;10.83;73.90
77011;BME280;65945;53.148;17.956;2024-02-26T11:16:39;100363.39;;;10.78;72.84
77011;BME280;65945;53.148;17.956;2024-02-26T11:19:09;100361.96;;;10.74;72.43
77011;BME280;65945;53.148;17.956;2024-02-26T11:21:37;100367.36;;;10.77;73.79
77011;BME280;65945;53.148;17.956;2024-02-26T11:24:11;100368.06;;;10.83;72.50
77011;BME280;65945;53.148;17.956;2024-02-26T11:26:55;100368.73;;;10.90;74.56
77011;BME280;65945;53.148;17.956;2024-02-26T11:29:28;100364.13;;;10.99;74.38
77011;BME280;65945;53.148;17.956;2024-02-26T11:31:59;100362.52;;;11.09;73.55
77011;BME280;65945;53.148;17.956;2024-02-26T11:34:26;100366.18;;;11.14;71.73
77011;BME280;65945;53.148;17.956;2024-02-26T11:36:54;100367.49;;;11.20;74.22
77011;BME280;65945;53.148;17.956;2024-02-26T11:39:20;100366.81;;;11.31;75.03
77011;BME280;65945;53.148;17.956;2024-02-26T11:41:47;100372.94;;;11.42;75.09
77011;BME280;65945;53.148;17.956;2024-02-26T11:44:14;100373.95;;;11.49;75.58
77011;BME280;65945;53.148;17.956;2024-02-26T11:46:56;100375.20;;;11.52;72.95
77011;BME280;65945;53.148;17.956;2024-02-26T11:49:30;100378.17;;;11.50;74.28
77011;BME280;65945;53.148;17.956;2024-02-26T11:51:58;100382.73;;;11.54;74.33
77011;BME280;65945;53.148;17.956;2024-02-26T11:54:56;100379.29;;;11.59;74.70
77011;BME280;65945;53.148;17.956;2024-02-26T12:07:49;100374.56;;;11.83;72.87
77011;BME280;65945;53.148;17.956;2024-02-26T12:10:27;100373.55;;;11.87;73.44
77011;BME280;65945;53.148;17.956;2024-02-26T12:12:59;100371.39;;;11.92;73.33
77011;BME280;65945;53.148;17.956;2024-02-26T12:15:35;100368.31;;;11.99;73.75
77011;BME280;65945;53.148;17.956;2024-02-26T12:18:04;100364.50;;;12.06;70.70
77011;BME280;65945;53.148;17.956;2024-02-26T12:20:31;100365.65;;;12.08;69.93
77011;BME280;65945;53.148;17.956;2024-02-26T12:22:58;100363.89;;;12.14;70.48
77011;BME280;65945;53.148;17.956;2024-02-26T12:25:27;100359.36;;;12.28;71.61
77011;BME280;65945;53.148;17.956;2024-02-26T12:27:55;100353.45;;;12.43;69.99
77011;BME280;65945;53.148;17.956;2024-02-26T12:30:22;100354.14;;;12.50;67.60
77011;BME280;65945;53.148;17.956;2024-02-26T12:32:50;100355.44;;;12.51;67.82
77011;BME280;65945;53.148;17.956;2024-02-26T12:35:18;100355.58;;;12.56;69.90
77011;BME280;65945;53.148;17.956;2024-02-26T12:37:44;100356.84;;;12.61;68.12
77011;BME280;65945;53.148;17.956;2024-02-26T12:40:12;100354.81;;;12.58;67.26
77011;BME280;65945;53.148;17.956;2024-02-26T12:42:39;100355.52;;;12.60;69.56
77011;BME280;65945;53.148;17.956;2024-02-26T12:45:08;100353.04;;;12.64;69.20
77011;BME280;65945;53.148;17.956;2024-02-26T12:47:40;100354.60;;;12.69;69.95
77011;BME280;65945;53.148;17.956;2024-02-26T12:50:09;100349.98;;;12.76;69.31
77011;BME280;65945;53.148;17.956;2024-02-26T12:52:40;100350.40;;;12.81;67.97
77011;BME280;65945;53.148;17.956;2024-02-26T12:55:07;100346.77;;;12.84;68.15
77011;BME280;65945;53.148;17.956;2024-02-26T12:57:38;100344.98;;;12.82;66.17
77011;BME280;65945;53.148;17.956;2024-02-26T13:00:08;100347.15;;;12.79;65.88